Time;durP1;ratioP1;P1;durP2;ratioP2;P2;SDS_P1;SDS_P2;PMS_P1;PMS_P2;Temp;Humidity;BMP_temperature;BMP_pressure;BME280_temperature;BME280_humidity;BME280_pressure;Samples;Min_cycle;Max_cycle;Signal;HPM_P1;HPM_P2
2023/06/26 00:01:15;;;;;;;5.70;5.13;;;20.50;47.20;;;;;;5030489;28;20188;-81
2023/06/26 00:03:40;;;;;;;7.80;5.03;;;20.40;41.90;;;;;;5031505;28;20184;-79
2023/06/26 00:06:06;;;;;;;7.57;5.40;;;20.30;40.70;;;;;;5029066;28;20223;-81
2023/06/26 00:08:32;;;;;;;6.80;4.93;;;20.30;40.70;;;;;;5029698;28;20177;-81
2023/06/26 00:10:57;;;;;;;5.23;4.73;;;20.30;51.20;;;;;;5030774;28;20184;-82
2023/06/26 00:13:24;;;;;;;5.53;5.03;;;20.30;92.00;;;;;;5043498;28;20269;-82
2023/06/26 00:15:50;;;;;;;6.13;5.33;;;20.30;91.10;;;;;;5028610;28;20215;-81
2023/06/26 00:18:16;;;;;;;7.20;5.23;;;20.20;93.20;;;;;;5029384;28;20184;-81
2023/06/26 00:20:41;;;;;;;5.77;5.17;;;20.20;94.70;;;;;;5028981;28;20169;-81
2023/06/26 00:23:07;;;;;;;8.00;5.23;;;20.20;83.00;;;;;;5029970;28;20201;-81
2023/06/26 00:25:36;;;;;;;9.77;6.20;;;20.20;79.70;;;;;;5029156;28;20204;-81
2023/06/26 00:28:01;;;;;;;7.00;5.33;;;20.10;76.80;;;;;;5030431;28;20241;-81
2023/06/26 00:30:27;;;;;;;5.90;5.20;;;20.10;75.40;;;;;;5044258;28;20208;-80
2023/06/26 00:32:52;;;;;;;8.73;5.50;;;20.10;97.00;;;;;;5029975;28;20640;-80
2023/06/26 00:35:18;;;;;;;7.77;5.97;;;20.20;96.50;;;;;;5030717;28;20193;-80
2023/06/26 00:37:44;;;;;;;7.13;5.40;;;20.10;99.90;;;;;;5029618;28;20183;-80
2023/06/26 00:40:10;;;;;;;7.73;5.53;;;20.10;99.90;;;;;;5030040;28;20177;-80
2023/06/26 00:42:35;;;;;;;6.10;5.50;;;20.10;97.70;;;;;;5044595;28;20283;-80
2023/06/26 00:45:01;;;;;;;7.13;5.43;;;19.90;96.60;;;;;;5027608;28;20588;-80
2023/06/26 00:47:27;;;;;;;6.97;4.80;;;20.00;95.80;;;;;;5029703;28;20207;-80
2023/06/26 00:49:54;;;;;;;6.10;5.47;;;20.10;99.90;;;;;;5027596;28;20176;-80
2023/06/26 00:52:20;;;;;;;10.93;5.83;;;20.00;99.90;;;;;;5028933;28;20173;-80
2023/06/26 00:54:46;;;;;;;7.13;5.53;;;19.90;99.90;;;;;;5029089;28;20668;-80
2023/06/26 00:57:11;;;;;;;6.40;5.33;;;19.90;99.90;;;;;;5028885;28;20234;-80
2023/06/26 00:59:38;;;;;;;6.80;5.57;;;19.90;99.90;;;;;;5044075;28;20177;-81
2023/06/26 01:02:04;;;;;;;5.90;5.30;;;19.80;99.90;;;;;;5028453;28;20689;-80
2023/06/26 01:04:32;;;;;;;7.73;5.00;;;19.70;99.90;;;;;;5027142;28;20196;-80
2023/06/26 01:06:59;;;;;;;7.43;5.53;;;19.80;99.90;;;;;;5026441;28;20178;-80
2023/06/26 01:09:26;;;;;;;5.37;4.87;;;19.80;99.90;;;;;;5042378;28;20204;-80
2023/06/26 01:11:51;;;;;;;7.80;5.17;;;19.80;99.90;;;;;;5028383;28;20177;-81
2023/06/26 01:14:18;;;;;;;5.93;5.30;;;19.70;99.90;;;;;;5042873;28;20728;-80
2023/06/26 01:16:47;;;;;;;5.87;5.27;;;19.70;99.90;;;;;;5026769;28;20343;-81
2023/06/26 01:19:24;;;;;;;6.87;5.60;;;19.70;99.90;;;;;;5019117;28;20189;-82
2023/06/26 01:21:57;;;;;;;6.20;5.60;;;19.70;99.90;;;;;;5025445;28;20177;-79
2023/06/26 01:24:27;;;;;;;6.43;5.80;;;19.60;99.90;;;;;;5010358;28;20198;-81
2023/06/26 01:26:53;;;;;;;11.03;5.67;;;19.60;99.90;;;;;;5025724;28;20182;-81
2023/06/26 01:29:20;;;;;;;6.47;5.67;;;19.60;99.90;;;;;;5010278;28;20201;-81
2023/06/26 01:31:49;;;;;;;6.40;5.70;;;19.60;99.90;;;;;;5010559;28;20186;-81
2023/06/26 01:34:17;;;;;;;6.27;5.63;;;19.60;99.90;;;;;;5038561;28;20177;-81
2023/06/26 01:36:45;;;;;;;7.37;5.83;;;19.60;99.90;;;;;;5053746;28;20216;-78
2023/06/26 01:39:15;;;;;;;7.20;5.53;;;19.40;99.90;;;;;;5054187;28;20179;-82
2023/06/26 01:41:41;;;;;;;10.47;6.03;;;19.50;99.90;;;;;;5032252;28;20182;-81
2023/06/26 01:44:12;;;;;;;8.60;5.97;;;19.40;99.90;;;;;;5020575;28;20193;-80
2023/06/26 01:46:43;;;;;;;6.83;5.83;;;19.40;99.90;;;;;;5027532;28;20169;-81
2023/06/26 01:49:27;;;;;;;8.17;5.97;;;19.40;99.90;;;;;;5028548;28;20231;-81
2023/06/26 01:52:06;;;;;;;8.33;5.87;;;19.30;99.90;;;;;;5028590;28;20165;-81
2023/06/26 01:54:41;;;;;;;6.47;5.70;;;19.30;99.90;;;;;;5028318;28;20259;-82
2023/06/26 01:57:08;;;;;;;6.60;6.00;;;19.30;99.90;;;;;;5028932;28;20208;-81
2023/06/26 01:59:34;;;;;;;6.73;6.03;;;19.30;99.90;;;;;;5027104;28;20200;-81
2023/06/26 02:02:07;;;;;;;6.33;5.60;;;19.20;99.90;;;;;;5025467;28;20189;-81
2023/06/26 02:04:32;;;;;;;7.63;5.80;;;19.20;99.90;;;;;;5026869;28;20210;-81
2023/06/26 02:06:58;;;;;;;8.00;5.57;;;19.20;99.90;;;;;;5025583;28;20185;-81
2023/06/26 02:09:23;;;;;;;10.00;5.33;;;19.10;99.90;;;;;;5027045;28;20180;-80
2023/06/26 02:11:49;;;;;;;6.67;6.07;;;19.20;99.90;;;;;;5024474;28;20181;-81
2023/06/26 02:14:14;;;;;;;7.27;5.97;;;19.20;99.90;;;;;;5026169;28;20188;-81
2023/06/26 02:16:40;;;;;;;8.50;5.97;;;19.20;99.90;;;;;;5041217;28;20207;-81
2023/06/26 02:19:05;;;;;;;6.47;5.73;;;19.10;99.90;;;;;;5026737;28;20169;-81
2023/06/26 02:21:31;;;;;;;6.43;5.83;;;19.10;99.90;;;;;;5041197;28;20281;-81
2023/06/26 02:23:56;;;;;;;7.77;5.90;;;19.10;99.90;;;;;;5023763;28;20625;-81
2023/06/26 02:26:22;;;;;;;8.43;5.70;;;19.00;99.90;;;;;;5023343;28;20251;-81
2023/06/26 02:28:47;;;;;;;6.70;6.00;;;19.10;99.90;;;;;;5026346;28;20183;-80
2023/06/26 02:31:13;;;;;;;8.10;6.20;;;19.10;99.90;;;;;;5025528;28;20176;-81
2023/06/26 02:33:39;;;;;;;8.10;6.20;;;19.10;83.00;;;;;;5041512;28;20613;-81
2023/06/26 02:36:04;;;;;;;15.77;6.43;;;19.10;62.60;;;;;;5025175;28;20604;-81
2023/06/26 02:38:30;;;;;;;6.73;5.53;;;19.10;99.90;;;;;;5026437;28;20181;-80
2023/06/26 02:40:55;;;;;;;9.17;6.30;;;19.30;99.90;;;;;;5025810;28;20644;-80
2023/06/26 02:43:21;;;;;;;9.97;5.70;;;19.10;99.90;;;;;;5025682;28;20598;-81
2023/06/26 02:45:46;;;;;;;7.40;6.23;;;19.20;99.90;;;;;;5026624;28;20188;-80
2023/06/26 02:48:12;;;;;;;7.10;6.20;;;19.10;95.40;;;;;;5026348;28;20184;-81
2023/06/26 02:50:37;;;;;;;7.13;6.43;;;19.10;92.30;;;;;;5026838;28;20172;-81
2023/06/26 02:53:03;;;;;;;8.83;6.53;;;19.10;99.90;;;;;;5024585;28;20169;-81
2023/06/26 02:55:28;;;;;;;9.53;6.30;;;19.10;99.90;;;;;;5040755;28;20215;-81
2023/06/26 02:57:54;;;;;;;8.77;6.23;;;19.10;99.90;;;;;;5024802;28;20215;-80
2023/06/26 03:00:20;;;;;;;10.13;6.40;;;19.10;99.90;;;;;;5024814;28;20205;-80
2023/06/26 03:02:45;;;;;;;7.47;5.93;;;19.10;99.90;;;;;;5024298;28;20201;-81
2023/06/26 03:05:13;;;;;;;8.30;6.07;;;19.10;99.90;;;;;;5025142;28;20196;-81
2023/06/26 03:07:38;;;;;;;8.33;6.27;;;19.20;98.30;;;;;;5025531;28;20180;-80
2023/06/26 03:10:05;;;;;;;7.30;6.50;;;19.10;99.90;;;;;;5023958;28;20177;-81
2023/06/26 03:12:30;;;;;;;7.50;6.33;;;19.10;88.50;;;;;;5024737;28;20676;-81
2023/06/26 03:14:56;;;;;;;6.53;5.90;;;19.20;50.10;;;;;;5025522;28;20224;-81
2023/06/26 03:17:21;;;;;;;6.73;5.93;;;19.20;25.30;;;;;;5040557;28;20285;-81
2023/06/26 03:19:47;;;;;;;8.43;5.60;;;19.20;1.00;;;;;;5040171;28;20181;-81
2023/06/26 03:22:12;;;;;;;6.83;5.90;;;19.30;1.00;;;;;;5025884;28;20169;-81
2023/06/26 03:24:38;;;;;;;8.30;5.53;;;19.40;1.00;;;;;;5038935;28;20193;-81
2023/06/26 03:27:04;;;;;;;17.00;6.97;;;19.40;1.00;;;;;;5024548;28;20177;-80
2023/06/26 03:29:29;;;;;;;6.90;5.30;;;19.50;1.00;;;;;;5040727;28;20185;-81
2023/06/26 03:31:55;;;;;;;6.93;5.20;;;19.50;1.00;;;;;;5025472;28;20181;-81
2023/06/26 03:34:21;;;;;;;9.20;5.70;;;19.50;1.00;;;;;;5023986;28;20209;-80
2023/06/26 03:36:46;;;;;;;7.43;5.93;;;19.60;1.00;;;;;;5025240;28;20692;-81
2023/06/26 03:39:12;;;;;;;6.87;5.80;;;19.50;1.00;;;;;;5024621;28;20691;-80
2023/06/26 03:41:38;;;;;;;8.47;6.17;;;19.60;1.00;;;;;;5026376;28;20589;-81
2023/06/26 03:44:03;;;;;;;8.07;5.73;;;19.60;1.00;;;;;;5026271;28;20181;-80
2023/06/26 03:46:29;;;;;;;7.97;5.73;;;19.60;1.00;;;;;;5027388;28;20263;-81
2023/06/26 03:48:55;;;;;;;8.60;5.20;;;19.70;1.00;;;;;;5027660;28;20272;-81
2023/06/26 03:51:20;;;;;;;6.23;5.13;;;19.70;1.00;;;;;;5044948;28;20185;-81
2023/06/26 03:53:46;;;;;;;10.97;6.07;;;19.70;6.20;;;;;;5029322;28;20188;-81
2023/06/26 03:56:11;;;;;;;8.07;5.50;;;19.70;50.40;;;;;;5029093;28;20205;-81
2023/06/26 03:58:37;;;;;;;6.43;5.43;;;19.70;35.80;;;;;;5029418;28;20185;-82
2023/06/26 04:01:02;;;;;;;7.67;5.60;;;19.70;21.40;;;;;;5044415;28;20482;-80
2023/06/26 04:03:29;;;;;;;7.37;6.13;;;19.70;36.50;;;;;;5042662;28;20197;-82
2023/06/26 04:05:54;;;;;;;7.70;5.90;;;19.70;1.00;;;;;;5028713;28;20205;-81
2023/06/26 04:08:20;;;;;;;9.87;5.87;;;19.70;1.00;;;;;;5043940;28;20179;-81
2023/06/26 04:10:47;;;;;;;8.47;5.87;;;19.80;1.00;;;;;;5028003;28;20192;-81
2023/06/26 04:13:14;;;;;;;8.87;5.67;;;19.90;1.00;;;;;;5028418;28;20503;-80
2023/06/26 04:15:39;;;;;;;7.37;5.83;;;19.80;1.00;;;;;;5044693;28;20293;-81
2023/06/26 04:18:05;;;;;;;7.37;5.70;;;19.90;1.00;;;;;;5026573;28;20648;-80
2023/06/26 04:20:30;;;;;;;7.87;6.27;;;19.90;1.00;;;;;;5028044;28;20620;-81
2023/06/26 04:22:56;;;;;;;9.37;6.00;;;19.90;1.00;;;;;;5027665;28;20173;-81
2023/06/26 04:25:21;;;;;;;8.03;6.30;;;20.00;1.00;;;;;;5043551;28;20258;-81
2023/06/26 04:27:47;;;;;;;8.67;5.93;;;20.00;1.00;;;;;;5041431;28;20211;-80
2023/06/26 04:30:13;;;;;;;10.70;6.40;;;20.00;1.00;;;;;;5028390;28;20292;-80
2023/06/26 04:32:38;;;;;;;9.23;6.20;;;20.10;1.00;;;;;;5027170;28;20188;-81
2023/06/26 04:35:04;;;;;;;8.27;5.93;;;20.10;1.00;;;;;;5043668;28;20208;-80
2023/06/26 04:37:30;;;;;;;8.10;5.60;;;20.20;1.00;;;;;;5028143;28;20268;-81
2023/06/26 04:39:55;;;;;;;7.77;5.90;;;20.10;1.00;;;;;;5029773;28;20260;-81
2023/06/26 04:42:23;;;;;;;7.40;6.40;;;20.20;1.00;;;;;;5043265;28;20219;-81
2023/06/26 04:44:49;;;;;;;7.53;6.47;;;20.30;1.00;;;;;;5043964;28;20197;-81
2023/06/26 04:47:15;;;;;;;10.23;6.10;;;20.30;1.00;;;;;;5044970;28;20187;-81
2023/06/26 04:49:45;;;;;;;12.50;6.00;;;20.40;1.00;;;;;;5028907;28;20177;-81
2023/06/26 04:52:14;;;;;;;8.30;6.00;;;20.40;1.00;;;;;;5045147;28;20174;-81
2023/06/26 04:54:40;;;;;;;6.90;5.10;;;20.50;1.00;;;;;;5044366;28;20193;-81
2023/06/26 04:57:05;;;;;;;6.67;4.90;;;20.60;1.00;;;;;;5030310;28;20220;-80
2023/06/26 04:59:31;;;;;;;5.97;4.50;;;20.80;1.00;;;;;;5044416;28;20188;-80
2023/06/26 05:01:57;;;;;;;8.87;4.97;;;20.90;1.00;;;;;;5030168;28;20189;-81
2023/06/26 05:04:22;;;;;;;10.00;4.77;;;20.90;1.00;;;;;;5046059;28;20289;-81
2023/06/26 05:06:48;;;;;;;6.87;5.27;;;21.00;1.00;;;;;;5036432;28;20237;-79
2023/06/26 05:09:14;;;;;;;7.37;4.90;;;21.00;1.00;;;;;;5039131;28;20191;-80
2023/06/26 05:11:39;;;;;;;7.80;5.30;;;21.10;1.00;;;;;;5050821;28;20189;-81
2023/06/26 05:14:09;;;;;;;7.30;4.43;;;21.10;1.00;;;;;;5041559;28;20760;-80
2023/06/26 05:16:35;;;;;;;8.27;4.20;;;21.00;99.90;;;;;;5041812;28;20231;-81
2023/06/26 05:19:00;;;;;;;11.90;4.53;;;21.10;99.90;;;;;;5051702;28;20181;-80
2023/06/26 05:21:26;;;;;;;7.73;4.30;;;21.10;99.90;;;;;;5034205;28;20177;-78
2023/06/26 05:23:56;;;;;;;6.57;4.57;;;21.10;1.00;;;;;;5047021;28;20629;-78
2023/06/26 05:26:22;;;;;;;8.23;4.27;;;21.10;1.00;;;;;;5032150;28;20197;-79
2023/06/26 05:28:48;;;;;;;6.80;4.47;;;21.10;1.00;;;;;;5028966;28;20208;-78
2023/06/26 05:31:15;;;;;;;6.40;4.30;;;21.10;1.00;;;;;;5046174;28;20188;-80
2023/06/26 05:33:44;;;;;;;5.87;4.53;;;21.10;1.00;;;;;;5028294;28;20193;-80
2023/06/26 05:36:10;;;;;;;6.77;4.47;;;21.10;1.00;;;;;;5026924;28;20212;-80
2023/06/26 05:38:36;;;;;;;5.90;4.20;;;21.20;1.00;;;;;;5027152;28;20544;-80
2023/06/26 05:41:02;;;;;;;6.17;4.13;;;21.20;1.00;;;;;;5027526;28;20184;-79
2023/06/26 05:43:27;;;;;;;8.67;4.20;;;21.30;1.00;;;;;;5025734;28;20192;-80
2023/06/26 05:45:53;;;;;;;8.40;4.30;;;21.30;1.00;;;;;;5028352;28;20207;-80
2023/06/26 05:48:18;;;;;;;9.97;4.43;;;21.30;1.00;;;;;;5026451;28;20181;-80
2023/06/26 05:50:45;;;;;;;8.27;4.20;;;21.30;99.90;;;;;;5040175;28;20204;-80
2023/06/26 05:53:10;;;;;;;7.67;4.50;;;21.30;99.90;;;;;;5042034;28;20184;-80
2023/06/26 05:55:36;;;;;;;11.23;4.23;;;21.30;99.90;;;;;;5024132;28;20319;-79
2023/06/26 05:58:02;;;;;;;9.13;3.87;;;21.20;99.90;;;;;;5024950;28;20176;-78
2023/06/26 06:00:29;;;;;;;6.97;4.30;;;21.20;1.00;;;;;;5023580;28;20192;-78
2023/06/26 06:02:54;;;;;;;8.77;4.50;;;21.10;99.90;;;;;;5023233;28;20608;-79
2023/06/26 06:05:21;;;;;;;9.70;4.37;;;21.10;99.90;;;;;;5021765;28;20224;-80
2023/06/26 06:07:47;;;;;;;8.63;4.10;;;21.20;99.90;;;;;;5024269;28;20220;-81
2023/06/26 06:10:13;;;;;;;6.53;4.10;;;21.20;99.90;;;;;;5026017;28;20231;-79
2023/06/26 06:12:38;;;;;;;10.33;4.57;;;21.20;99.90;;;;;;5024675;28;20169;-78
2023/06/26 06:15:06;;;;;;;8.90;4.50;;;21.20;99.90;;;;;;5017088;28;20263;-79
2023/06/26 06:17:31;;;;;;;7.30;4.47;;;21.20;99.90;;;;;;5017140;28;20207;-82
2023/06/26 06:19:57;;;;;;;7.93;4.60;;;21.10;99.90;;;;;;5016693;28;20181;-79
2023/06/26 06:22:23;;;;;;;6.83;4.50;;;21.10;99.90;;;;;;5014268;28;20235;-79
2023/06/26 06:24:50;;;;;;;9.80;4.67;;;21.20;99.90;;;;;;5028656;28;20227;-80
2023/06/26 06:27:15;;;;;;;6.80;4.23;;;21.10;99.90;;;;;;5009650;28;20189;-80
2023/06/26 06:29:41;;;;;;;9.00;4.70;;;21.10;99.90;;;;;;5013840;28;20188;-79
2023/06/26 06:32:07;;;;;;;8.43;4.50;;;21.10;99.90;;;;;;5026619;28;20283;-79
2023/06/26 06:34:33;;;;;;;11.00;4.77;;;21.10;99.90;;;;;;5015454;28;20197;-80
2023/06/26 06:36:58;;;;;;;7.70;3.93;;;21.10;99.90;;;;;;5015607;28;20197;-80
2023/06/26 06:39:24;;;;;;;10.57;4.60;;;21.20;99.90;;;;;;5016569;28;20164;-81
2023/06/26 06:41:49;;;;;;;9.07;4.20;;;21.10;99.90;;;;;;5020905;28;20656;-79
2023/06/26 06:44:15;;;;;;;9.90;4.67;;;21.20;99.90;;;;;;5017875;28;20207;-79
2023/06/26 06:46:40;;;;;;;7.53;4.97;;;21.20;99.90;;;;;;5031255;28;20177;-77
2023/06/26 06:49:06;;;;;;;10.10;4.90;;;21.20;99.90;;;;;;5016499;28;20181;-79
2023/06/26 06:51:31;;;;;;;9.97;4.97;;;21.30;99.90;;;;;;5015426;28;20185;-79
2023/06/26 06:53:57;;;;;;;10.77;4.47;;;21.30;99.90;;;;;;5015661;28;20719;-79
2023/06/26 06:56:22;;;;;;;8.63;4.73;;;21.40;99.90;;;;;;5014124;28;20295;-80
2023/06/26 06:58:48;;;;;;;9.63;4.20;;;21.40;99.90;;;;;;5016043;28;20173;-78
2023/06/26 07:01:13;;;;;;;10.47;4.73;;;21.40;99.90;;;;;;5014143;28;20238;-77
2023/06/26 07:03:39;;;;;;;10.13;4.33;;;21.40;99.90;;;;;;5013913;28;20180;-78
2023/06/26 07:06:05;;;;;;;9.73;4.70;;;21.40;99.90;;;;;;5014686;28;20196;-79
2023/06/26 07:08:31;;;;;;;8.70;4.30;;;21.40;99.90;;;;;;5014834;28;20550;-79
2023/06/26 07:10:57;;;;;;;7.73;4.20;;;21.50;99.90;;;;;;5015400;28;20191;-77
2023/06/26 07:13:23;;;;;;;10.00;4.83;;;21.40;99.90;;;;;;5016309;28;20184;-77
2023/06/26 07:15:48;;;;;;;8.43;4.47;;;21.40;99.90;;;;;;5031781;28;20303;-79
2023/06/26 07:18:14;;;;;;;9.83;4.60;;;21.40;99.90;;;;;;5017621;28;20204;-79
2023/06/26 07:20:40;;;;;;;14.07;5.67;;;21.30;99.90;;;;;;5021809;28;20173;-83
2023/06/26 07:23:06;;;;;;;11.80;5.30;;;21.30;99.90;;;;;;5022570;28;20173;-80
2023/06/26 07:25:31;;;;;;;10.33;5.00;;;21.30;99.90;;;;;;5023510;28;20215;-80
2023/06/26 07:27:57;;;;;;;9.40;4.83;;;21.20;99.90;;;;;;5023915;28;20601;-80
2023/06/26 07:30:23;;;;;;;13.37;5.37;;;21.20;99.90;;;;;;5022749;28;20184;-81
2023/06/26 07:32:49;;;;;;;9.60;4.93;;;21.30;99.90;;;;;;5024880;28;20609;-81
2023/06/26 07:35:15;;;;;;;9.23;5.20;;;21.20;99.90;;;;;;5022648;28;20251;-82
2023/06/26 07:37:41;;;;;;;11.97;5.70;;;21.40;99.90;;;;;;5022564;28;20209;-82
2023/06/26 07:40:08;;;;;;;10.43;5.23;;;21.50;99.90;;;;;;5024180;28;20203;-81
2023/06/26 07:42:33;;;;;;;7.60;5.00;;;21.70;99.90;;;;;;5038723;28;20181;-82
2023/06/26 07:44:59;;;;;;;20.30;6.00;;;21.80;99.90;;;;;;5025661;28;20197;-80
2023/06/26 07:47:24;;;;;;;11.83;5.23;;;21.80;99.90;;;;;;5024565;28;20179;-81
2023/06/26 07:49:50;;;;;;;8.63;5.10;;;21.80;99.90;;;;;;5022996;28;20584;-82
2023/06/26 07:52:16;;;;;;;11.67;5.00;;;21.90;99.90;;;;;;5023542;28;20181;-81
2023/06/26 07:54:41;;;;;;;10.07;5.33;;;22.00;99.90;;;;;;5023590;28;20201;-81
2023/06/26 07:57:08;;;;;;;13.63;5.70;;;21.90;99.90;;;;;;5023464;28;20280;-81
2023/06/26 07:59:34;;;;;;;10.90;4.97;;;21.90;99.90;;;;;;5024765;28;20690;-81
2023/06/26 08:02:01;;;;;;;10.17;4.67;;;22.00;99.90;;;;;;5023548;28;20204;-80
2023/06/26 08:04:29;;;;;;;11.10;5.00;;;22.00;99.90;;;;;;5024062;28;20199;-82
2023/06/26 08:06:56;;;;;;;10.77;4.63;;;22.00;99.90;;;;;;5023298;28;20191;-81
2023/06/26 08:09:24;;;;;;;13.27;5.07;;;22.10;99.90;;;;;;5024054;28;20181;-82
2023/06/26 08:11:50;;;;;;;10.00;4.97;;;22.20;99.90;;;;;;5025523;28;20192;-82
2023/06/26 08:14:16;;;;;;;11.90;5.17;;;22.30;99.90;;;;;;5023741;28;20668;-82
2023/06/26 08:16:45;;;;;;;10.97;4.50;;;22.30;99.90;;;;;;5024185;28;20294;-82
2023/06/26 08:19:12;;;;;;;11.33;5.40;;;22.30;99.90;;;;;;5025140;28;20303;-83
2023/06/26 08:21:38;;;;;;;12.87;4.53;;;22.10;99.90;;;;;;5023509;28;20177;-83
2023/06/26 08:24:03;;;;;;;10.73;5.10;;;22.20;99.90;;;;;;5023976;28;20189;-82
2023/06/26 08:26:29;;;;;;;11.77;5.03;;;22.20;99.90;;;;;;5023945;28;20181;-82
2023/06/26 08:28:55;;;;;;;13.90;4.80;;;22.10;99.90;;;;;;5027098;28;20268;-82
2023/06/26 08:31:21;;;;;;;25.57;4.80;;;22.10;99.90;;;;;;5025451;28;20181;-82
2023/06/26 08:33:47;;;;;;;11.40;4.57;;;22.30;99.90;;;;;;5027555;28;20181;-83
2023/06/26 08:36:13;;;;;;;12.67;5.07;;;22.10;99.90;;;;;;5029470;28;20213;-81
2023/06/26 08:38:40;;;;;;;10.17;4.10;;;22.00;99.90;;;;;;5038020;28;20177;-81
2023/06/26 08:41:07;;;;;;;12.30;4.40;;;22.10;99.90;;;;;;5038493;28;20173;-79
2023/06/26 08:43:33;;;;;;;9.97;3.93;;;22.10;99.90;;;;;;5024849;28;20177;-82
2023/06/26 08:45:59;;;;;;;13.67;3.93;;;22.20;99.90;;;;;;5024015;28;20363;-82
2023/06/26 08:48:25;;;;;;;8.03;3.40;;;22.30;99.90;;;;;;5029235;28;20180;-82
2023/06/26 08:50:53;;;;;;;7.67;2.93;;;22.50;99.90;;;;;;5035018;28;20264;-81
2023/06/26 08:53:58;;;;;;;13.40;3.50;;;22.60;99.90;;;;;;5036645;28;20181;-80
2023/06/26 08:56:27;;;;;;;8.13;3.00;;;22.70;99.90;;;;;;5037041;28;20220;-80
2023/06/26 08:58:53;;;;;;;9.93;3.53;;;22.60;99.90;;;;;;5035918;28;20236;-80
2023/06/26 09:01:18;;;;;;;8.90;3.27;;;22.40;99.90;;;;;;5036346;28;20196;-80
2023/06/26 09:03:44;;;;;;;9.80;3.60;;;22.50;99.90;;;;;;5035297;28;20168;-81
2023/06/26 09:06:10;;;;;;;11.43;3.27;;;22.50;99.90;;;;;;5036799;28;20281;-81
2023/06/26 09:08:36;;;;;;;10.43;3.50;;;22.50;99.90;;;;;;5036792;28;20204;-80
2023/06/26 09:11:01;;;;;;;12.93;3.90;;;22.50;99.90;;;;;;5034738;28;20191;-80
2023/06/26 09:13:29;;;;;;;12.63;4.37;;;22.50;99.90;;;;;;5036305;28;20190;-80
2023/06/26 09:15:55;;;;;;;11.47;3.83;;;22.50;99.90;;;;;;5037670;28;20191;-80
2023/06/26 09:18:21;;;;;;;8.20;3.77;;;22.30;99.90;;;;;;5034120;28;20208;-79
2023/06/26 09:20:47;;;;;;;8.13;3.37;;;22.40;99.90;;;;;;5036764;28;20253;-77
2023/06/26 09:23:13;;;;;;;6.97;3.50;;;22.50;99.90;;;;;;5033376;28;20185;-80
2023/06/26 09:25:40;;;;;;;9.57;3.10;;;22.70;99.90;;;;;;5028135;28;20204;-81
2023/06/26 09:28:06;;;;;;;8.83;3.13;;;22.70;99.90;;;;;;5045270;28;20199;-79
2023/06/26 09:30:32;;;;;;;9.00;3.13;;;22.80;99.90;;;;;;5028675;28;20268;-81
2023/06/26 09:33:12;;;;;;;7.83;3.40;;;22.80;99.90;;;;;;5029019;28;20165;-79
2023/06/26 09:35:38;;;;;;;7.33;2.90;;;22.90;99.90;;;;;;5028532;28;20224;-80
2023/06/26 09:38:03;;;;;;;11.10;3.37;;;22.90;99.90;;;;;;5029075;28;20231;-80
2023/06/26 09:40:29;;;;;;;8.80;3.60;;;23.00;99.90;;;;;;5026688;28;20184;-81
2023/06/26 09:43:03;;;;;;;9.73;4.00;;;22.90;99.90;;;;;;5028386;28;20177;-80
2023/06/26 09:45:28;;;;;;;11.73;3.90;;;22.90;99.90;;;;;;5026825;28;20228;-81
2023/06/26 09:47:54;;;;;;;11.97;3.80;;;22.90;99.90;;;;;;5026986;28;20169;-83
2023/06/26 09:50:25;;;;;;;11.27;3.60;;;23.00;99.90;;;;;;5028166;28;20237;-81
2023/06/26 09:52:52;;;;;;;8.77;2.83;;;23.10;99.90;;;;;;5029616;28;20166;-81
2023/06/26 09:55:21;;;;;;;9.70;3.20;;;23.00;99.90;;;;;;5028781;28;20219;-81
2023/06/26 09:57:47;;;;;;;15.33;3.70;;;23.10;99.90;;;;;;5028864;28;20192;-82
2023/06/26 10:00:14;;;;;;;7.07;2.57;;;23.40;99.90;;;;;;5027257;28;20184;-82
2023/06/26 10:02:39;;;;;;;7.47;2.53;;;23.50;99.90;;;;;;5024367;28;20207;-83
2023/06/26 10:05:05;;;;;;;7.37;2.97;;;23.60;99.90;;;;;;5029912;28;20212;-83
2023/06/26 10:07:31;;;;;;;7.53;3.03;;;23.70;99.90;;;;;;5027794;28;20188;-79
2023/06/26 10:09:57;;;;;;;6.10;2.87;;;23.70;99.90;;;;;;5024384;28;20177;-79
2023/06/26 10:12:28;;;;;;;5.10;2.57;;;23.90;99.90;;;;;;5025470;28;20200;-80
2023/06/26 10:14:56;;;;;;;7.43;2.80;;;23.80;99.90;;;;;;5025366;28;20234;-82
2023/06/26 10:17:24;;;;;;;9.10;3.33;;;24.00;99.90;;;;;;5021616;28;20664;-79
2023/06/26 10:19:52;;;;;;;10.50;3.10;;;23.90;99.90;;;;;;5024054;28;20199;-81
2023/06/26 10:22:19;;;;;;;7.83;2.90;;;23.80;99.90;;;;;;5024230;28;20207;-81
2023/06/26 10:24:47;;;;;;;9.53;3.20;;;23.40;99.90;;;;;;5024502;28;20583;-82
2023/06/26 10:27:25;;;;;;;7.57;2.53;;;23.40;99.90;;;;;;5026272;28;20290;-82
2023/06/26 10:29:54;;;;;;;6.07;3.20;;;23.20;99.90;;;;;;5024278;28;20196;-82
2023/06/26 10:32:23;;;;;;;10.43;3.37;;;23.10;99.90;;;;;;5025841;28;20228;-82
2023/06/26 10:34:49;;;;;;;4.83;2.07;;;23.10;99.90;;;;;;5024970;28;20209;-80
2023/06/26 10:37:14;;;;;;;9.23;2.57;;;23.20;99.90;;;;;;5027028;28;20235;-82
2023/06/26 10:39:52;;;;;;;9.27;2.17;;;23.10;99.90;;;;;;5025861;28;20185;-81
2023/06/26 10:42:18;;;;;;;5.07;2.57;;;23.30;99.90;;;;;;5024967;28;20169;-81
2023/06/26 10:44:46;;;;;;;7.87;2.33;;;23.40;99.90;;;;;;5026996;28;20691;-78
2023/06/26 10:47:31;;;;;;;6.07;2.83;;;23.50;99.90;;;;;;5024491;28;20177;-81
2023/06/26 10:50:15;;;;;;;6.10;2.53;;;23.70;99.90;;;;;;5022391;28;20172;-78
2023/06/26 10:52:41;;;;;;;5.23;2.20;;;23.90;99.90;;;;;;5024014;28;20154;-80
2023/06/26 10:55:09;;;;;;;7.10;2.60;;;23.50;99.90;;;;;;5021264;28;20560;-79
2023/06/26 10:57:36;;;;;;;4.77;2.50;;;23.70;99.90;;;;;;5023368;28;20193;-80
2023/06/26 11:00:30;;;;;;;6.03;2.43;;;23.80;99.90;;;;;;5023856;28;20169;-81
2023/06/26 11:02:56;;;;;;;3.13;1.97;;;23.60;99.90;;;;;;5002393;28;20204;-80
2023/06/26 11:05:29;;;;;;;4.10;1.83;;;23.40;99.90;;;;;;5024683;28;20260;-82
2023/06/26 11:08:10;;;;;;;4.73;1.50;;;23.20;99.90;;;;;;5022084;28;20172;-82
2023/06/26 11:10:53;;;;;;;4.97;1.80;;;23.20;99.90;;;;;;5022425;28;20547;-81
2023/06/26 11:13:19;;;;;;;3.60;1.90;;;23.40;99.90;;;;;;5020167;28;20223;-81
2023/06/26 11:15:46;;;;;;;7.47;1.87;;;23.50;99.90;;;;;;5023751;28;20288;-79
2023/06/26 11:18:13;;;;;;;8.23;1.90;;;23.50;99.90;;;;;;5023869;28;20177;-81
2023/06/26 11:20:39;;;;;;;6.47;1.90;;;23.60;99.90;;;;;;5022756;28;20724;-82
2023/06/26 11:23:06;;;;;;;4.13;1.53;;;23.70;99.90;;;;;;5024039;28;20165;-81
2023/06/26 11:25:35;;;;;;;8.37;1.60;;;23.60;99.90;;;;;;5023481;28;20193;-80
2023/06/26 11:28:01;;;;;;;3.27;1.80;;;23.60;99.90;;;;;;5024107;28;20196;-79
2023/06/26 11:30:27;;;;;;;5.40;1.33;;;23.50;99.90;;;;;;5023379;28;20177;-79
2023/06/26 11:32:52;;;;;;;9.50;1.60;;;23.50;99.90;;;;;;5040204;28;20181;-78
2023/06/26 11:35:30;;;;;;;3.77;1.40;;;23.40;99.90;;;;;;5022949;28;20197;-81
2023/06/26 11:37:59;;;;;;;7.10;1.40;;;23.40;99.90;;;;;;5020998;28;20168;-80
2023/06/26 11:40:30;;;;;;;6.10;1.43;;;23.40;99.90;;;;;;5022956;28;20165;-81
2023/06/26 11:42:58;;;;;;;5.83;1.30;;;23.50;99.90;;;;;;5039298;28;20169;-81
2023/06/26 11:45:24;;;;;;;2.27;1.20;;;23.60;99.90;;;;;;5022531;28;20567;-81
2023/06/26 11:47:50;;;;;;;3.37;1.37;;;23.60;99.90;;;;;;5038411;28;20213;-80
2023/06/26 11:50:17;;;;;;;9.03;1.77;;;23.50;99.90;;;;;;5021673;28;20176;-81
2023/06/26 11:52:43;;;;;;;3.80;1.67;;;23.50;99.90;;;;;;5022890;28;20173;-79
2023/06/26 11:55:10;;;;;;;3.93;1.43;;;23.50;1.00;;;;;;5021754;28;20204;-79
2023/06/26 11:57:36;;;;;;;4.47;1.20;;;23.50;1.00;;;;;;5024235;28;20200;-79
2023/06/26 12:00:12;;;;;;;2.97;1.50;;;23.50;1.00;;;;;;5023795;28;20173;-80
2023/06/26 12:02:38;;;;;;;5.87;1.80;;;23.70;1.00;;;;;;5026599;28;20183;-79
2023/06/26 12:05:04;;;;;;;5.53;1.37;;;23.80;1.00;;;;;;5030317;28;20177;-77
2023/06/26 12:07:31;;;;;;;3.67;1.93;;;23.90;99.90;;;;;;5038571;28;20169;-79
2023/06/26 12:09:58;;;;;;;4.77;1.73;;;23.80;99.90;;;;;;5040031;28;20187;-78
2023/06/26 12:12:24;;;;;;;2.27;1.30;;;23.90;1.00;;;;;;5026543;28;20184;-79
2023/06/26 12:14:52;;;;;;;5.30;1.20;;;23.60;1.00;;;;;;5027413;28;20247;-78
2023/06/26 12:17:22;;;;;;;2.10;1.10;;;23.60;99.90;;;;;;5030000;28;20204;-78
2023/06/26 12:19:50;;;;;;;3.27;1.23;;;23.70;99.90;;;;;;5029844;28;20268;-79
2023/06/26 12:22:18;;;;;;;2.87;1.00;;;23.80;1.00;;;;;;5042391;28;20211;-79
2023/06/26 12:24:44;;;;;;;4.30;1.10;;;23.90;99.90;;;;;;5026123;28;20675;-77
2023/06/26 12:27:11;;;;;;;4.23;0.90;;;23.80;99.90;;;;;;5023317;28;20207;-80
2023/06/26 12:29:39;;;;;;;3.40;1.20;;;23.60;1.00;;;;;;5026768;28;20234;-79
2023/06/26 12:32:08;;;;;;;5.73;1.53;;;23.60;1.00;;;;;;5027354;28;20173;-79
2023/06/26 12:34:36;;;;;;;5.00;1.03;;;23.70;8.00;;;;;;5026906;28;20193;-79
2023/06/26 12:37:07;;;;;;;3.93;1.00;;;23.70;99.90;;;;;;5025748;28;20300;-79
2023/06/26 12:39:57;;;;;;;7.13;1.30;;;23.70;1.00;;;;;;5025754;28;20165;-79
2023/06/26 12:42:24;;;;;;;5.27;1.10;;;23.70;1.00;;;;;;5026359;28;20242;-79
2023/06/26 12:44:50;;;;;;;3.20;1.00;;;23.80;1.00;;;;;;5025459;28;20189;-79
2023/06/26 12:47:18;;;;;;;4.03;1.10;;;23.90;1.00;;;;;;5027065;28;20589;-78